createdAt,value
2018-03-28T00:00:23.490Z,6.00
2018-03-28T00:02:51.642Z,5.90
2018-03-28T00:05:20.537Z,5.70
2018-03-28T00:07:49.438Z,5.60
2018-03-28T00:10:17.607Z,5.50
2018-03-28T00:12:45.830Z,5.60
2018-03-28T00:15:14.725Z,5.50
2018-03-28T00:17:42.950Z,5.50
2018-03-28T00:20:11.088Z,5.40
2018-03-28T00:22:39.332Z,5.40
2018-03-28T00:25:07.559Z,5.50
2018-03-28T00:27:35.693Z,5.40
2018-03-28T00:30:03.819Z,5.20
2018-03-28T00:32:32.173Z,5.10
2018-03-28T00:35:00.323Z,5.20
2018-03-28T00:37:29.217Z,5.10
2018-03-28T00:39:57.353Z,5.10
2018-03-28T00:42:25.508Z,5.10
2018-03-28T00:44:54.390Z,5.10
2018-03-28T00:47:22.535Z,5.00
2018-03-28T00:49:50.670Z,5.10
2018-03-28T00:52:19.565Z,5.00
2018-03-28T00:54:48.480Z,5.00
2018-03-28T00:57:16.609Z,5.00
2018-03-28T00:59:44.770Z,5.20
2018-03-28T01:02:12.898Z,5.00
2018-03-28T01:04:41.038Z,4.90
2018-03-28T01:07:09.927Z,4.90
2018-03-28T01:09:38.825Z,4.90
2018-03-28T01:12:07.810Z,5.00
2018-03-28T01:14:35.942Z,4.90
2018-03-28T01:17:04.103Z,5.00
2018-03-28T01:19:32.242Z,4.90
2018-03-28T01:22:00.472Z,4.90
2018-03-28T01:24:28.607Z,5.00
2018-03-28T01:26:56.763Z,4.90
2018-03-28T01:32:07.230Z,4.70
2018-03-28T01:34:35.361Z,4.70
2018-03-28T01:37:03.509Z,4.70
2018-03-28T01:39:31.648Z,4.70
2018-03-28T01:41:59.792Z,4.70
2018-03-28T01:44:27.922Z,4.60
2018-03-28T01:46:56.069Z,4.60
2018-03-28T01:49:24.222Z,4.60
2018-03-28T01:51:53.158Z,4.80
2018-03-28T01:54:21.299Z,4.80
2018-03-28T01:56:49.434Z,4.80
2018-03-28T01:59:17.610Z,4.70
2018-03-28T02:01:45.785Z,4.60
2018-03-28T02:04:13.940Z,4.60
2018-03-28T02:06:42.078Z,4.60
2018-03-28T02:09:10.578Z,4.60
2018-03-28T02:11:38.704Z,4.60
2018-03-28T02:14:07.615Z,4.60
2018-03-28T02:16:35.843Z,4.60
2018-03-28T02:19:03.995Z,4.60
2018-03-28T02:21:32.127Z,4.70
2018-03-28T02:24:00.289Z,4.60
2018-03-28T02:26:28.422Z,4.60
2018-03-28T02:28:56.570Z,4.50
2018-03-28T02:31:25.466Z,4.60
2018-03-28T02:33:54.389Z,4.50
2018-03-28T02:36:23.299Z,4.50
2018-03-28T02:38:51.435Z,4.50
2018-03-28T02:41:19.584Z,4.50
2018-03-28T02:43:47.718Z,4.50
2018-03-28T02:46:15.870Z,4.60
2018-03-28T02:48:44.776Z,4.50
2018-03-28T02:51:12.936Z,4.50
2018-03-28T02:53:41.838Z,4.60
2018-03-28T02:56:09.993Z,4.60
2018-03-28T02:58:38.894Z,4.50
2018-03-28T03:01:07.055Z,4.50
2018-03-28T03:03:35.967Z,4.60
2018-03-28T03:06:04.114Z,4.50
2018-03-28T03:08:32.256Z,4.60
2018-03-28T03:11:00.393Z,4.60
2018-03-28T03:13:28.525Z,4.60
2018-03-28T03:15:56.694Z,4.60
2018-03-28T03:18:24.819Z,4.50
2018-03-28T03:20:52.966Z,4.70
2018-03-28T03:23:21.106Z,4.70
2018-03-28T03:25:50.022Z,4.70
2018-03-28T03:28:18.154Z,4.60
2018-03-28T03:30:46.298Z,4.60
2018-03-28T03:33:14.431Z,4.70
2018-03-28T03:35:43.359Z,4.70
2018-03-28T03:38:11.541Z,4.70
2018-03-28T03:40:39.665Z,4.70
2018-03-28T03:43:07.897Z,4.70
2018-03-28T03:45:36.031Z,4.80
2018-03-28T03:48:04.184Z,4.70
2018-03-28T03:50:32.442Z,4.70
2018-03-28T03:53:00.623Z,4.70
2018-03-28T03:55:29.554Z,4.70
2018-03-28T03:57:57.707Z,4.70
2018-03-28T04:00:25.870Z,4.80
2018-03-28T04:02:54.044Z,4.80
2018-03-28T04:05:22.225Z,4.80
2018-03-28T04:07:50.416Z,4.80
2018-03-28T04:10:18.551Z,4.80
2018-03-28T04:12:47.467Z,4.90
2018-03-28T04:15:16.367Z,4.90
2018-03-28T04:17:44.517Z,4.90
2018-03-28T04:20:12.753Z,4.90
2018-03-28T04:22:41.070Z,4.90
2018-03-28T04:25:09.226Z,4.90
2018-03-28T04:27:37.391Z,4.90
2018-03-28T04:30:05.528Z,4.90
2018-03-28T04:32:33.682Z,4.90
2018-03-28T04:35:01.824Z,4.90
2018-03-28T04:37:29.973Z,4.90
2018-03-28T04:39:58.104Z,4.90
2018-03-28T04:42:26.262Z,5.00
2018-03-28T04:44:54.436Z,5.00
2018-03-28T04:47:23.394Z,5.00
2018-03-28T04:49:51.537Z,5.00
2018-03-28T04:52:20.460Z,5.00
2018-03-28T04:54:48.597Z,5.00
2018-03-28T04:57:16.746Z,5.10
2018-03-28T04:59:44.882Z,5.10
2018-03-28T05:02:13.047Z,5.20
2018-03-28T05:04:41.179Z,5.10
2018-03-28T05:07:09.370Z,5.10
2018-03-28T05:09:37.530Z,5.20
2018-03-28T05:12:05.725Z,5.20
2018-03-28T05:14:34.620Z,5.20
2018-03-28T05:17:02.766Z,5.20
2018-03-28T05:19:30.970Z,5.30
2018-03-28T05:21:59.101Z,5.30
2018-03-28T05:24:28.754Z,5.30
2018-03-28T05:26:56.898Z,5.30
2018-03-28T05:29:25.058Z,5.30
2018-03-28T05:31:53.199Z,5.40
2018-03-28T05:34:21.343Z,5.40
2018-03-28T05:36:49.473Z,5.40
2018-03-28T05:39:17.630Z,5.40
2018-03-28T05:41:45.760Z,5.40
2018-03-28T05:44:13.911Z,5.40
2018-03-28T05:46:42.811Z,5.50
2018-03-28T05:49:10.997Z,5.50
2018-03-28T05:51:39.133Z,5.60
2018-03-28T05:54:08.047Z,5.60
2018-03-28T05:56:36.173Z,5.60
2018-03-28T05:59:04.433Z,5.60
2018-03-28T06:01:32.708Z,5.70
2018-03-28T06:04:00.842Z,5.70
2018-03-28T06:06:28.999Z,5.70
2018-03-28T06:08:57.181Z,5.70
2018-03-28T06:11:25.463Z,5.80
2018-03-28T06:13:53.737Z,5.90
2018-03-28T06:16:21.852Z,5.90
2018-03-28T06:18:50.008Z,5.90
2018-03-28T06:21:18.902Z,6.00
2018-03-28T06:23:47.046Z,6.00
2018-03-28T06:26:15.189Z,6.00
2018-03-28T06:28:44.106Z,6.10
2018-03-28T06:31:12.235Z,6.10
2018-03-28T06:33:41.151Z,6.10
2018-03-28T06:36:09.302Z,6.10
2018-03-28T06:38:37.438Z,6.20
2018-03-28T06:41:05.570Z,6.20
2018-03-28T06:43:33.738Z,6.30
2018-03-28T06:46:01.880Z,6.30
2018-03-28T06:48:29.989Z,6.40
2018-03-28T06:50:58.165Z,6.30
2018-03-28T06:53:26.296Z,6.40
2018-03-28T06:55:55.225Z,6.50
2018-03-28T06:58:23.350Z,6.50
2018-03-28T07:00:51.503Z,6.50
2018-03-28T07:03:19.684Z,6.50
2018-03-28T07:05:47.863Z,6.60
2018-03-28T07:08:16.046Z,6.60
2018-03-28T07:10:44.190Z,6.70
2018-03-28T07:13:12.382Z,6.80
2018-03-28T07:15:40.592Z,6.90
2018-03-28T07:18:08.690Z,6.90
2018-03-28T07:20:36.931Z,7.00
2018-03-28T07:23:05.871Z,7.10
2018-03-28T07:25:33.985Z,7.00
2018-03-28T07:28:02.902Z,7.10
2018-03-28T07:30:31.038Z,7.10
2018-03-28T07:32:59.218Z,7.20
2018-03-28T07:35:27.319Z,7.10
2018-03-28T07:37:55.463Z,7.20
2018-03-28T07:40:24.353Z,7.20
2018-03-28T07:42:53.259Z,7.10
2018-03-28T07:45:21.375Z,7.10
2018-03-28T07:47:49.514Z,7.10
2018-03-28T07:50:17.666Z,7.20
2018-03-28T07:52:45.826Z,7.20
2018-03-28T07:55:14.714Z,7.20
2018-03-28T07:57:43.614Z,7.20
2018-03-28T08:00:12.505Z,7.20
2018-03-28T08:02:40.639Z,7.20
2018-03-28T08:05:08.767Z,7.20
2018-03-28T08:07:36.889Z,7.20
2018-03-28T08:10:06.561Z,7.30
2018-03-28T08:12:34.682Z,7.30
2018-03-28T08:15:02.826Z,7.30
2018-03-28T08:17:30.954Z,7.20
2018-03-28T08:19:59.107Z,7.20
2018-03-28T08:22:27.230Z,7.10
2018-03-28T08:24:55.379Z,7.10
2018-03-28T08:27:23.510Z,7.20
2018-03-28T08:29:52.552Z,7.50
2018-03-28T08:32:20.737Z,7.40
2018-03-28T08:34:48.874Z,7.50
2018-03-28T08:37:17.002Z,7.60
2018-03-28T08:39:45.147Z,7.80
2018-03-28T08:42:13.279Z,7.80
2018-03-28T08:44:41.425Z,7.80
2018-03-28T08:47:10.323Z,7.80
2018-03-28T08:49:39.344Z,7.80
2018-03-28T08:52:07.519Z,7.80
2018-03-28T08:54:35.652Z,7.80
2018-03-28T08:57:04.555Z,8.20
2018-03-28T08:59:32.695Z,8.10
2018-03-28T09:02:00.844Z,8.30
2018-03-28T09:04:28.993Z,8.10
2018-03-28T09:06:57.162Z,8.00
2018-03-28T09:09:25.295Z,7.90
2018-03-28T09:11:54.204Z,8.20
2018-03-28T09:14:22.332Z,8.20
2018-03-28T09:16:50.475Z,8.10
2018-03-28T09:19:18.615Z,8.10
2018-03-28T09:21:47.522Z,8.10
2018-03-28T09:24:15.654Z,8.10
2018-03-28T09:26:43.795Z,8.30
2018-03-28T09:29:12.697Z,8.80
2018-03-28T09:31:40.898Z,8.80
2018-03-28T09:34:09.790Z,9.10
2018-03-28T09:36:37.952Z,9.10
2018-03-28T09:39:06.075Z,9.20
2018-03-28T09:41:34.266Z,9.10
2018-03-28T09:44:02.434Z,9.50
2018-03-28T09:46:30.523Z,9.60
2018-03-28T09:48:58.659Z,9.20
2018-03-28T09:51:26.782Z,9.30
2018-03-28T09:53:55.517Z,9.60
2018-03-28T09:56:23.627Z,10.20
2018-03-28T09:58:51.775Z,10.40
2018-03-28T10:01:25.454Z,9.90
2018-03-28T10:03:53.599Z,9.70
2018-03-28T10:06:22.480Z,9.40
2018-03-28T10:08:51.379Z,9.20
2018-03-28T10:11:19.516Z,9.20
2018-03-28T10:13:47.659Z,9.00
2018-03-28T10:16:15.793Z,8.90
2018-03-28T10:18:43.967Z,8.90
2018-03-28T10:21:12.853Z,8.90
2018-03-28T10:23:41.768Z,8.90
2018-03-28T10:26:09.883Z,8.90
2018-03-28T10:28:38.051Z,9.00
2018-03-28T10:31:06.226Z,9.10
2018-03-28T10:33:34.365Z,9.40
2018-03-28T10:36:02.496Z,9.70
2018-03-28T10:38:31.385Z,10.90
2018-03-28T10:41:01.318Z,11.60
2018-03-28T10:43:29.434Z,11.60
2018-03-28T10:45:57.573Z,11.80
2018-03-28T10:48:25.694Z,12.10
2018-03-28T10:50:53.879Z,12.50
2018-03-28T10:53:22.006Z,11.80
2018-03-28T10:55:50.140Z,12.10
2018-03-28T10:58:18.265Z,11.80
2018-03-28T11:00:46.507Z,12.00
2018-03-28T11:03:15.396Z,11.70
2018-03-28T11:05:43.537Z,11.70
2018-03-28T11:08:12.468Z,14.20
2018-03-28T11:10:40.650Z,14.20
2018-03-28T11:13:08.774Z,14.60
2018-03-28T11:15:36.913Z,14.10
2018-03-28T11:18:05.038Z,13.60
2018-03-28T11:20:33.267Z,13.60
2018-03-28T11:23:01.355Z,12.80
2018-03-28T11:25:30.261Z,13.10
2018-03-28T11:27:58.864Z,13.10
2018-03-28T11:30:27.130Z,12.80
2018-03-28T11:32:55.250Z,14.10
2018-03-28T11:35:23.403Z,14.10
2018-03-28T11:37:51.571Z,13.30
2018-03-28T11:40:19.679Z,12.80
2018-03-28T11:42:47.830Z,13.30
2018-03-28T11:45:15.952Z,14.00
2018-03-28T11:47:44.130Z,14.50
2018-03-28T11:50:12.299Z,14.50
2018-03-28T11:52:40.507Z,13.40
2018-03-28T11:55:08.654Z,13.50
2018-03-28T11:57:36.794Z,12.90
2018-03-28T12:00:04.934Z,13.00
2018-03-28T12:02:33.845Z,11.90
2018-03-28T12:05:01.963Z,11.90
2018-03-28T12:07:30.891Z,11.80
2018-03-28T12:09:59.778Z,12.10
2018-03-28T12:12:27.926Z,12.10
2018-03-28T12:14:56.818Z,11.10
2018-03-28T12:17:24.958Z,11.10
2018-03-28T12:19:53.074Z,11.00
2018-03-28T12:22:21.210Z,11.40
2018-03-28T12:24:49.334Z,11.30
2018-03-28T12:27:18.315Z,12.20
2018-03-28T12:29:46.447Z,12.20
2018-03-28T12:32:17.766Z,12.10
2018-03-28T12:34:46.752Z,12.00
2018-03-28T12:37:14.892Z,12.00
2018-03-28T12:39:43.878Z,12.20
2018-03-28T12:42:12.070Z,12.20
2018-03-28T12:44:40.970Z,11.90
2018-03-28T12:47:09.138Z,11.90
2018-03-28T12:49:37.286Z,12.10
2018-03-28T12:52:05.468Z,12.00
2018-03-28T12:54:33.622Z,11.60
2018-03-28T12:57:01.749Z,11.70
2018-03-28T12:59:29.914Z,11.70
2018-03-28T13:01:58.787Z,11.60
2018-03-28T13:04:27.006Z,11.50
2018-03-28T13:06:55.136Z,11.40
2018-03-28T13:09:23.286Z,11.20
2018-03-28T13:11:51.411Z,11.00
2018-03-28T13:14:19.565Z,11.20
2018-03-28T13:16:47.687Z,11.30
2018-03-28T13:19:15.861Z,11.20
2018-03-28T13:21:44.003Z,11.10
2018-03-28T13:24:12.203Z,11.10
2018-03-28T13:26:40.363Z,10.90
2018-03-28T13:29:08.493Z,11.20
2018-03-28T13:31:36.655Z,11.20
2018-03-28T13:34:05.537Z,11.20
2018-03-28T13:36:33.666Z,11.30
2018-03-28T13:39:01.807Z,11.70
2018-03-28T13:41:29.936Z,12.40
2018-03-28T13:43:58.107Z,12.20
2018-03-28T13:46:27.069Z,12.40
2018-03-28T13:48:55.290Z,12.40
2018-03-28T13:51:23.516Z,12.10
2018-03-28T13:53:51.643Z,12.10
2018-03-28T13:56:19.780Z,11.90
2018-03-28T13:58:48.731Z,12.10
2018-03-28T14:01:16.831Z,12.10
2018-03-28T14:03:45.737Z,11.70
2018-03-28T14:06:13.882Z,11.70
2018-03-28T14:08:42.034Z,11.60
2018-03-28T14:11:10.988Z,11.50
2018-03-28T14:13:39.970Z,11.40
2018-03-28T14:16:08.079Z,11.40
2018-03-28T14:18:36.217Z,11.30
2018-03-28T14:21:04.355Z,11.30
2018-03-28T14:23:35.970Z,11.20
2018-03-28T14:26:04.994Z,11.20
2018-03-28T14:28:34.910Z,11.10
2018-03-28T14:31:03.167Z,11.10
2018-03-28T14:33:32.096Z,11.00
2018-03-28T14:36:00.279Z,11.00
2018-03-28T14:38:28.476Z,11.00
2018-03-28T14:40:56.567Z,11.00
2018-03-28T14:43:24.704Z,11.10
2018-03-28T14:45:52.822Z,10.90
2018-03-28T14:48:20.967Z,10.90
2018-03-28T14:50:49.092Z,11.00
2018-03-28T14:53:17.259Z,10.90
2018-03-28T14:55:45.403Z,10.90
2018-03-28T14:58:13.554Z,10.90
2018-03-28T15:00:43.091Z,10.80
2018-03-28T15:03:11.242Z,10.70
2018-03-28T15:05:41.026Z,10.60
2018-03-28T15:08:09.232Z,10.60
2018-03-28T15:10:37.412Z,10.70
2018-03-28T15:13:06.319Z,10.60
2018-03-28T15:15:36.745Z,10.60
2018-03-28T15:18:05.788Z,10.60
2018-03-28T15:20:34.662Z,10.60
2018-03-28T15:23:02.816Z,10.50
2018-03-28T15:25:30.978Z,10.50
2018-03-28T15:27:59.100Z,10.40
2018-03-28T15:30:27.248Z,10.30
2018-03-28T15:32:55.447Z,10.20
2018-03-28T15:35:23.593Z,10.10
2018-03-28T15:37:51.856Z,10.10
2018-03-28T15:40:20.779Z,10.00
2018-03-28T15:42:48.890Z,9.90
2018-03-28T15:45:17.035Z,9.90
2018-03-28T15:47:45.151Z,9.90
2018-03-28T15:50:14.051Z,9.70
2018-03-28T15:52:42.169Z,9.70
2018-03-28T15:55:10.304Z,9.70
2018-03-28T15:57:38.534Z,9.60
2018-03-28T16:00:06.667Z,9.60
2018-03-28T16:02:34.793Z,9.50
2018-03-28T16:05:02.925Z,9.30
2018-03-28T16:07:31.169Z,9.30
2018-03-28T16:10:00.536Z,9.30
2018-03-28T16:12:28.671Z,9.30
2018-03-28T16:14:57.748Z,9.20
2018-03-28T16:17:25.838Z,9.20
2018-03-28T16:19:54.913Z,9.00
2018-03-28T16:22:23.852Z,9.00
2018-03-28T16:24:52.010Z,9.00
2018-03-28T16:27:20.181Z,9.00
2018-03-28T16:29:48.325Z,8.90
2018-03-28T16:32:17.235Z,8.80
2018-03-28T16:34:45.355Z,8.80
2018-03-28T16:37:13.542Z,8.90
2018-03-28T16:39:41.673Z,8.90
2018-03-28T16:42:09.810Z,8.70
2018-03-28T16:44:38.690Z,8.50
2018-03-28T16:47:07.806Z,8.40
2018-03-28T16:49:37.479Z,8.40
2018-03-28T16:52:06.405Z,8.30
2018-03-28T16:54:34.543Z,8.30
2018-03-28T16:57:02.686Z,8.30
2018-03-28T16:59:32.110Z,8.30
2018-03-28T17:02:01.141Z,8.50
2018-03-28T17:04:29.267Z,8.50
2018-03-28T17:06:58.168Z,8.60
2018-03-28T17:09:26.379Z,8.60
2018-03-28T17:11:54.575Z,8.60
2018-03-28T17:14:22.740Z,8.60
2018-03-28T17:16:50.935Z,8.60
2018-03-28T17:19:19.870Z,8.50
2018-03-28T17:21:48.015Z,8.50
2018-03-28T17:24:16.166Z,8.50
2018-03-28T17:26:45.997Z,8.30
2018-03-28T17:29:14.144Z,8.30
2018-03-28T17:31:43.038Z,8.30
2018-03-28T17:34:11.945Z,8.20
2018-03-28T17:36:40.090Z,8.20
2018-03-28T17:39:09.023Z,8.20
2018-03-28T17:41:37.200Z,8.20
2018-03-28T17:44:05.326Z,8.20
2018-03-28T17:46:33.473Z,8.20
2018-03-28T17:49:01.629Z,8.00
2018-03-28T17:51:29.783Z,8.10
2018-03-28T17:53:57.942Z,8.20
2018-03-28T17:56:27.299Z,8.10
2018-03-28T17:58:55.554Z,8.10
2018-03-28T18:01:24.674Z,8.10
2018-03-28T18:03:53.582Z,8.10
2018-03-28T18:06:21.747Z,8.10
2018-03-28T18:08:49.913Z,8.10
2018-03-28T18:11:18.818Z,8.10
2018-03-28T18:13:46.978Z,8.00
2018-03-28T18:16:15.142Z,8.10
2018-03-28T18:18:43.314Z,8.10
2018-03-28T18:21:12.259Z,8.10
2018-03-28T18:23:40.389Z,8.10
2018-03-28T18:26:08.550Z,8.00
2018-03-28T18:28:38.294Z,8.00
2018-03-28T18:31:11.102Z,8.10
2018-03-28T18:33:39.656Z,8.10
2018-03-28T18:36:12.142Z,8.10
2018-03-28T18:38:41.274Z,8.10
2018-03-28T18:41:14.884Z,8.00
2018-03-28T18:43:47.335Z,8.00
2018-03-28T18:46:17.530Z,8.00
2018-03-28T18:48:53.142Z,8.10
2018-03-28T18:51:23.526Z,8.10
2018-03-28T18:53:54.487Z,8.10
2018-03-28T18:56:25.963Z,8.10
2018-03-28T18:58:55.818Z,8.10
2018-03-28T19:01:29.611Z,8.10
2018-03-28T19:04:00.299Z,8.10
2018-03-28T19:06:31.027Z,8.10
2018-03-28T19:08:59.609Z,8.10
2018-03-28T19:11:30.061Z,8.10
2018-03-28T19:14:00.166Z,8.10
2018-03-28T19:16:29.651Z,8.30
2018-03-28T19:18:57.814Z,8.30
2018-03-28T19:21:25.954Z,8.30
2018-03-28T19:23:54.606Z,8.30
2018-03-28T19:26:22.723Z,8.30
2018-03-28T19:28:51.636Z,8.30
2018-03-28T19:31:19.887Z,8.30
2018-03-28T19:33:48.389Z,8.30
2018-03-28T19:36:16.562Z,8.40
2018-03-28T19:38:44.711Z,8.40
2018-03-28T19:41:12.833Z,8.40
2018-03-28T19:43:40.987Z,8.50
2018-03-28T19:46:09.867Z,8.40
2018-03-28T19:48:38.046Z,8.40
2018-03-28T19:51:06.165Z,8.40
2018-03-28T19:53:34.284Z,8.40
2018-03-28T19:56:02.446Z,8.40
2018-03-28T19:58:31.335Z,8.30
2018-03-28T20:00:59.567Z,8.30
2018-03-28T20:03:28.451Z,8.30
2018-03-28T20:05:56.585Z,8.30
2018-03-28T20:08:24.713Z,8.30
2018-03-28T20:10:53.617Z,8.30
2018-03-28T20:13:21.746Z,8.20
2018-03-28T20:15:49.894Z,8.20
2018-03-28T20:18:18.041Z,8.30
2018-03-28T20:20:46.186Z,8.20
2018-03-28T20:23:15.083Z,8.30
2018-03-28T20:25:43.239Z,8.20
2018-03-28T20:28:12.117Z,8.20
2018-03-28T20:30:41.028Z,8.20
2018-03-28T20:33:09.168Z,8.20
2018-03-28T20:35:37.306Z,8.20
2018-03-28T20:38:05.426Z,8.20
2018-03-28T20:40:35.060Z,8.20
2018-03-28T20:43:03.190Z,8.20
2018-03-28T20:45:32.093Z,8.20
2018-03-28T20:48:00.235Z,8.20
2018-03-28T20:50:28.358Z,8.20
2018-03-28T20:52:56.492Z,8.20
2018-03-28T20:55:24.661Z,8.20
2018-03-28T20:57:52.910Z,8.30
2018-03-28T21:00:21.182Z,8.30
2018-03-28T21:02:49.341Z,8.20
2018-03-28T21:05:17.501Z,8.20
2018-03-28T21:07:45.646Z,8.20
2018-03-28T21:10:13.786Z,8.20
2018-03-28T21:12:41.961Z,8.20
2018-03-28T21:15:10.129Z,8.20
2018-03-28T21:17:38.369Z,8.20
2018-03-28T21:20:06.931Z,8.20
2018-03-28T21:22:36.419Z,8.20
2018-03-28T21:25:04.561Z,8.20
2018-03-28T21:27:33.086Z,8.20
2018-03-28T21:30:01.222Z,8.20
2018-03-28T21:32:29.796Z,8.20
2018-03-28T21:34:58.313Z,8.30
2018-03-28T21:37:27.581Z,8.20
2018-03-28T21:39:58.257Z,8.20
2018-03-28T21:42:26.546Z,8.20
2018-03-28T21:44:54.729Z,8.20
2018-03-28T21:47:22.947Z,8.20
2018-03-28T21:49:51.182Z,8.30
2018-03-28T21:52:19.306Z,8.30
2018-03-28T21:54:47.441Z,8.20
2018-03-28T21:57:16.360Z,8.30
2018-03-28T21:59:44.513Z,8.30
2018-03-28T22:02:13.415Z,8.30
2018-03-28T22:04:41.559Z,8.30
2018-03-28T22:07:10.458Z,8.30
2018-03-28T22:09:39.380Z,8.20
2018-03-28T22:12:08.581Z,8.20
2018-03-28T22:14:36.714Z,8.20
2018-03-28T22:17:05.722Z,8.10
2018-03-28T22:19:33.834Z,8.10
2018-03-28T22:22:01.981Z,8.10
2018-03-28T22:24:30.112Z,8.10
2018-03-28T22:26:59.019Z,8.10
2018-03-28T22:29:27.163Z,8.10
2018-03-28T22:31:55.314Z,8.10
2018-03-28T22:34:23.431Z,8.00
2018-03-28T22:36:51.595Z,8.00
2018-03-28T22:39:20.491Z,7.90
2018-03-28T22:41:48.738Z,7.90
2018-03-28T22:44:17.639Z,8.00
2018-03-28T22:46:46.533Z,7.90
2018-03-28T22:49:14.692Z,7.90
2018-03-28T22:51:43.668Z,7.90
2018-03-28T22:54:11.781Z,7.90
2018-03-28T22:56:39.940Z,7.90
2018-03-28T22:59:08.074Z,7.80
2018-03-28T23:01:37.736Z,7.90
2018-03-28T23:04:05.894Z,7.80
2018-03-28T23:06:34.035Z,7.90
2018-03-28T23:09:02.964Z,7.90
2018-03-28T23:11:31.178Z,7.90
2018-03-28T23:13:59.323Z,7.90
2018-03-28T23:16:28.220Z,7.90
2018-03-28T23:21:55.171Z,7.80
2018-03-28T23:24:23.306Z,7.80
2018-03-28T23:26:51.436Z,7.80
2018-03-28T23:29:19.577Z,7.80
2018-03-28T23:31:47.703Z,7.90
2018-03-28T23:34:16.598Z,7.80
2018-03-28T23:36:44.735Z,7.70
2018-03-28T23:39:12.870Z,7.70
2018-03-28T23:41:40.999Z,7.60
2018-03-28T23:44:09.155Z,7.50
2018-03-28T23:46:37.277Z,7.40
2018-03-28T23:49:05.421Z,7.40
2018-03-28T23:51:33.542Z,7.30
2018-03-28T23:54:01.709Z,7.30
2018-03-28T23:56:29.832Z,7.30
2018-03-28T23:58:58.733Z,7.10
